Terminal Aerodrome Forecast
Issued by NWS Central Illinois

Home | Current Version | Previous Version | Text Only | Print | Product List | Glossary On
Versions: 1 2 3 4 5 6 7 8 9 10 11 12 13 14 15 16 17
695
FTUS43 KILX 280951 AAB
TAFSPI
TAF AMD
KSPI 280951Z 2810/2906 27015G25KT 3/4SM +TSRA BR BKN025CB OVC040
     FM281100 VRB03KT 3SM BR VCTS BKN050CB
     FM281400 15005KT P6SM SCT025 BKN250
     FM281900 17005KT P6SM VCTS SCT035CB BKN250
     FM290100 16004KT P6SM BKN250=

USA.gov is the U.S. government's official web portal to all federal, state and local government web resources and services.